Time;durP1;ratioP1;P1;durP2;ratioP2;P2;SDS_P1;SDS_P2;PMS_P1;PMS_P2;Temp;Humidity;BMP_temperature;BMP_pressure;BME280_temperature;BME280_humidity;BME280_pressure;Samples;Min_cycle;Max_cycle;Signal;HPM_P1;HPM_P2
2022/12/17 13:06:07;;;;;;;119.03;56.35;;;-4.40;20.30;;;;;;5052182;28;20264;-70
2022/12/17 13:08:33;;;;;;;162.30;139.80;;;-4.30;20.40;;;;;;5044008;28;20231;-71
2022/12/17 13:11:10;;;;;;;111.97;53.13;;;-4.40;20.50;;;;;;5045208;28;20421;-71
2022/12/17 13:13:54;;;;;;;114.50;51.08;;;-4.30;21.30;;;;;;5050262;28;20416;-70
2022/12/17 13:16:35;;;;;;;118.30;57.30;;;-4.20;20.40;;;;;;5050450;28;20174;-70
2022/12/17 13:19:03;;;;;;;110.30;50.30;;;-4.30;20.10;;;;;;5049369;28;20251;-70
2022/12/17 13:21:30;;;;;;;110.68;52.03;;;-4.30;21.00;;;;;;5050074;28;20193;-70
2022/12/17 13:23:57;;;;;;;135.27;96.18;;;-4.40;21.10;;;;;;5050234;28;20201;-71
2022/12/17 13:26:29;;;;;;;132.00;79.38;;;-4.40;20.90;;;;;;5050874;28;20536;-70
2022/12/17 13:28:54;;;;;;;119.10;67.55;;;-4.50;21.50;;;;;;5051947;28;20171;-70
2022/12/17 13:31:26;;;;;;;138.57;61.47;;;-4.50;22.10;;;;;;5051673;28;20709;-70
2022/12/17 13:34:19;;;;;;;136.57;111.10;;;-4.50;22.00;;;;;;5052013;28;20187;-71
2022/12/17 13:37:08;;;;;;;127.15;68.78;;;-4.60;21.70;;;;;;5051909;28;20518;-70
2022/12/17 13:39:53;;;;;;;124.00;78.13;;;-4.70;22.20;;;;;;5032383;28;20218;-70
2022/12/17 13:42:31;;;;;;;123.18;61.38;;;-4.70;22.20;;;;;;5051459;28;20362;-71
2022/12/17 13:44:57;;;;;;;113.47;60.25;;;-4.70;22.20;;;;;;5052138;28;20189;-71
2022/12/17 13:47:26;;;;;;;138.95;89.72;;;-4.70;22.20;;;;;;5051945;28;20640;-70
2022/12/17 13:49:55;;;;;;;128.18;72.00;;;-4.80;22.20;;;;;;5051825;28;20185;-70
2022/12/17 13:52:24;;;;;;;144.90;82.75;;;-4.90;22.40;;;;;;5051333;28;20237;-70
2022/12/17 13:54:50;;;;;;;127.65;62.03;;;-5.10;22.60;;;;;;5051483;28;20183;-70
2022/12/17 13:57:21;;;;;;;186.47;166.03;;;-5.20;23.50;;;;;;5052246;28;20178;-70
2022/12/17 13:59:55;;;;;;;139.95;82.40;;;-5.30;23.60;;;;;;5052747;28;20432;-70
2022/12/17 14:02:27;;;;;;;135.63;63.90;;;-5.30;24.20;;;;;;5055019;28;20209;-70
2022/12/17 14:04:55;;;;;;;123.90;57.00;;;-5.30;24.40;;;;;;5055777;28;20606;-70
2022/12/17 14:07:22;;;;;;;129.52;63.92;;;-5.30;24.50;;;;;;5055639;28;20194;-71
2022/12/17 14:09:48;;;;;;;160.70;134.75;;;-5.20;24.40;;;;;;5055589;28;20189;-70
2022/12/17 14:12:21;;;;;;;136.00;73.37;;;-5.20;24.30;;;;;;5055165;28;20190;-71
2022/12/17 14:15:07;;;;;;;134.65;76.75;;;-5.30;24.90;;;;;;5055492;28;20466;-70
2022/12/17 14:17:36;;;;;;;130.00;59.42;;;-5.40;25.00;;;;;;5055768;28;20197;-71
2022/12/17 14:20:12;;;;;;;142.40;84.65;;;-5.40;25.30;;;;;;5055377;28;20278;-70
2022/12/17 14:22:41;;;;;;;133.70;71.95;;;-5.50;25.00;;;;;;5054026;28;20376;-70
2022/12/17 14:25:15;;;;;;;143.65;88.50;;;-5.50;25.70;;;;;;5055049;28;20205;-70
2022/12/17 14:28:03;;;;;;;141.48;80.22;;;-5.60;25.60;;;;;;5055492;28;20181;-70
2022/12/17 14:30:39;;;;;;;144.95;76.22;;;-5.60;26.30;;;;;;5054090;28;20174;-71
2022/12/17 14:33:26;;;;;;;139.73;84.22;;;-5.70;27.00;;;;;;5054971;28;20217;-71
2022/12/17 14:35:54;;;;;;;128.52;69.53;;;-5.70;27.10;;;;;;5053972;28;20632;-71
2022/12/17 14:38:20;;;;;;;145.63;96.35;;;-5.80;27.20;;;;;;5055347;28;20232;-70
2022/12/17 14:40:46;;;;;;;151.52;82.03;;;-5.80;27.50;;;;;;5041560;28;20211;-70
2022/12/17 14:43:13;;;;;;;148.57;104.43;;;-5.90;27.90;;;;;;5034931;28;20290;-70
2022/12/17 14:46:30;;;;;;;169.43;148.90;;;-5.90;28.10;;;;;;5035420;28;20167;-70
2022/12/17 14:51:26;;;;;;;137.85;86.68;;;-6.10;29.30;;;;;;5055097;28;20210;-70
2022/12/17 14:53:52;;;;;;;341.40;310.27;;;-6.00;29.30;;;;;;5054861;28;20183;-71
2022/12/17 14:56:22;;;;;;;196.60;170.17;;;-6.10;29.30;;;;;;5054954;28;20623;-70
2022/12/17 14:58:48;;;;;;;263.48;236.80;;;-6.20;29.90;;;;;;5054835;28;20197;-71
2022/12/17 15:01:14;;;;;;;171.70;112.57;;;-6.20;30.60;;;;;;5054634;28;20182;-70
2022/12/17 15:03:47;;;;;;;182.13;136.65;;;-6.20;31.50;;;;;;5054593;28;20205;-71
2022/12/17 15:06:17;;;;;;;192.00;152.50;;;-6.20;32.10;;;;;;5054830;28;20175;-71
2022/12/17 15:08:45;;;;;;;282.77;255.40;;;-6.10;32.50;;;;;;5054673;28;20171;-70
2022/12/17 15:11:13;;;;;;;177.35;143.48;;;-6.10;32.70;;;;;;5053220;28;20205;-70
2022/12/17 15:13:39;;;;;;;218.63;194.57;;;-6.10;33.10;;;;;;5054142;28;20186;-70
2022/12/17 15:16:05;;;;;;;169.13;119.03;;;-6.10;33.40;;;;;;5054394;28;20660;-70
2022/12/17 15:18:30;;;;;;;153.57;95.65;;;-6.10;33.80;;;;;;5054376;28;20436;-71
2022/12/17 15:20:56;;;;;;;162.20;104.80;;;-6.00;35.00;;;;;;5054425;28;20190;-70
2022/12/17 15:23:22;;;;;;;159.43;99.00;;;-6.00;34.10;;;;;;5053794;28;20210;-70
2022/12/17 15:25:50;;;;;;;170.50;94.15;;;-5.90;34.00;;;;;;5054266;28;20258;-70
2022/12/17 15:28:18;;;;;;;151.05;94.97;;;-5.80;33.10;;;;;;5054382;28;20166;-70
2022/12/17 15:30:44;;;;;;;168.05;114.00;;;-5.70;32.90;;;;;;5054222;28;20167;-70
2022/12/17 15:33:10;;;;;;;155.35;84.13;;;-5.60;32.10;;;;;;5052155;28;20309;-70
2022/12/17 15:35:37;;;;;;;149.25;88.85;;;-5.50;32.20;;;;;;5054149;28;20609;-70
2022/12/17 15:38:03;;;;;;;153.50;85.35;;;-5.40;31.10;;;;;;5054022;28;20524;-70
2022/12/17 15:40:29;;;;;;;145.18;81.00;;;-5.30;29.80;;;;;;5054052;28;20548;-70
2022/12/17 15:43:10;;;;;;;155.77;95.50;;;-5.30;30.00;;;;;;5052134;28;20361;-71
2022/12/17 15:45:43;;;;;;;161.70;88.88;;;-5.40;29.70;;;;;;5053908;28;20178;-70
2022/12/17 15:48:10;;;;;;;156.25;87.95;;;-5.40;29.70;;;;;;5052537;28;20201;-70
2022/12/17 15:50:36;;;;;;;152.65;101.90;;;-5.40;29.30;;;;;;5053861;28;20182;-70
2022/12/17 15:53:02;;;;;;;147.45;91.30;;;-5.50;29.60;;;;;;5053262;28;20198;-71
2022/12/17 15:55:28;;;;;;;142.77;85.10;;;-5.40;29.10;;;;;;5053562;28;20663;-70
2022/12/17 15:57:53;;;;;;;163.60;106.17;;;-5.50;29.60;;;;;;5053647;28;20210;-70
2022/12/17 16:00:19;;;;;;;157.93;81.20;;;-5.50;29.30;;;;;;5053728;28;20508;-70
2022/12/17 16:02:47;;;;;;;145.90;82.43;;;-5.50;29.60;;;;;;5053274;28;20209;-70
2022/12/17 16:05:13;;;;;;;153.98;89.72;;;-5.60;29.60;;;;;;5052300;28;20221;-70
2022/12/17 16:07:38;;;;;;;153.97;83.57;;;-5.60;29.60;;;;;;5053631;28;20214;-70
2022/12/17 16:10:05;;;;;;;149.90;94.63;;;-5.50;29.80;;;;;;5053453;28;20781;-69
2022/12/17 16:12:31;;;;;;;167.85;102.90;;;-5.50;29.60;;;;;;5051870;28;20285;-70
2022/12/17 16:14:57;;;;;;;137.70;88.67;;;-5.40;30.00;;;;;;5053354;28;20736;-70
2022/12/17 16:17:22;;;;;;;148.00;82.57;;;-5.40;29.70;;;;;;5053110;28;20486;-70
2022/12/17 16:19:48;;;;;;;163.87;106.60;;;-5.40;29.70;;;;;;5051795;28;20175;-70
2022/12/17 16:22:14;;;;;;;158.80;82.63;;;-5.40;29.40;;;;;;5052391;28;20652;-70
2022/12/17 16:24:39;;;;;;;205.67;153.67;;;-5.40;28.70;;;;;;5053010;28;20209;-70
2022/12/17 16:27:05;;;;;;;166.93;111.53;;;-5.60;28.10;;;;;;5053409;28;20175;-70
2022/12/17 16:29:31;;;;;;;170.57;94.23;;;-5.70;28.90;;;;;;5052669;28;20938;-70
2022/12/17 16:31:58;;;;;;;173.37;87.90;;;-5.70;29.50;;;;;;5052993;28;21035;-70
2022/12/17 16:34:23;;;;;;;146.13;92.05;;;-5.70;29.50;;;;;;5053711;28;20565;-70
2022/12/17 16:36:49;;;;;;;185.53;131.47;;;-5.60;29.60;;;;;;5052209;28;20273;-69
2022/12/17 16:39:16;;;;;;;189.50;142.67;;;-5.60;29.60;;;;;;5045031;28;20187;-70
2022/12/17 16:41:42;;;;;;;178.13;118.13;;;-5.70;29.50;;;;;;5051389;28;20289;-68
2022/12/17 16:44:08;;;;;;;196.63;138.88;;;-5.70;29.50;;;;;;5041721;28;20333;-70
2022/12/17 16:46:41;;;;;;;189.00;162.77;;;-5.60;29.90;;;;;;5042744;28;20198;-69
2022/12/17 16:49:15;;;;;;;148.93;99.38;;;-5.60;29.60;;;;;;5052736;28;20175;-69
2022/12/17 16:51:42;;;;;;;176.43;93.45;;;-5.60;29.60;;;;;;5052014;28;20288;-69
2022/12/17 16:54:12;;;;;;;161.50;93.80;;;-5.60;29.60;;;;;;5052625;28;20252;-69
2022/12/17 16:56:38;;;;;;;164.68;87.80;;;-5.50;29.60;;;;;;5039488;28;20635;-70
2022/12/17 16:59:04;;;;;;;171.70;90.90;;;-5.60;29.60;;;;;;5030829;28;20261;-70
2022/12/17 17:01:30;;;;;;;166.57;96.05;;;-5.50;29.00;;;;;;5033548;28;20444;-70
2022/12/17 17:03:56;;;;;;;157.68;99.68;;;-5.60;28.30;;;;;;5039970;28;20208;-70
2022/12/17 17:06:23;;;;;;;146.37;89.53;;;-5.80;27.80;;;;;;5052264;28;20170;-70
2022/12/17 17:08:48;;;;;;;169.43;82.32;;;-5.90;28.00;;;;;;5052179;28;20508;-70
2022/12/17 17:11:15;;;;;;;161.97;82.70;;;-5.80;27.60;;;;;;5052177;28;20681;-69
2022/12/17 17:13:41;;;;;;;145.00;84.93;;;-5.90;27.70;;;;;;5051771;28;20212;-70
2022/12/17 17:16:08;;;;;;;169.18;100.13;;;-5.90;27.20;;;;;;5052379;28;20245;-70
2022/12/17 17:18:35;;;;;;;190.57;134.52;;;-6.00;27.30;;;;;;5052783;28;20644;-70
2022/12/17 17:21:27;;;;;;;168.90;94.95;;;-6.00;28.20;;;;;;5051972;28;20186;-69
2022/12/17 17:24:05;;;;;;;168.18;106.47;;;-6.00;28.60;;;;;;5059974;28;20203;-69
2022/12/17 17:26:33;;;;;;;151.90;84.97;;;-6.10;29.10;;;;;;5032359;28;20585;-68
2022/12/17 17:28:59;;;;;;;188.23;95.30;;;-6.10;29.30;;;;;;5031976;28;20233;-69
2022/12/17 17:31:26;;;;;;;159.90;83.00;;;-6.10;29.00;;;;;;5031885;28;20179;-67
2022/12/17 17:33:52;;;;;;;199.23;112.40;;;-6.10;29.20;;;;;;5031777;28;20179;-71
2022/12/17 17:36:26;;;;;;;179.30;118.05;;;-6.20;28.50;;;;;;5041800;28;20186;-71
2022/12/17 17:38:53;;;;;;;168.35;97.40;;;-6.20;28.70;;;;;;5050353;28;20720;-71
2022/12/17 17:41:21;;;;;;;168.48;90.53;;;-6.20;28.50;;;;;;5048835;28;20216;-69
2022/12/17 17:43:55;;;;;;;191.82;128.27;;;-6.20;28.60;;;;;;5044970;28;20697;-69
2022/12/17 17:46:21;;;;;;;186.50;89.22;;;-6.40;28.30;;;;;;5051901;28;20186;-70
2022/12/17 17:48:47;;;;;;;169.37;85.43;;;-6.50;29.00;;;;;;5051220;28;20530;-70
2022/12/17 17:51:16;;;;;;;173.60;101.13;;;-6.50;29.20;;;;;;5051021;28;20179;-70
2022/12/17 17:53:47;;;;;;;160.15;93.57;;;-6.50;29.30;;;;;;5050378;28;20263;-70
2022/12/17 17:56:15;;;;;;;178.77;120.35;;;-6.50;29.80;;;;;;5051473;28;20682;-71
2022/12/17 17:58:46;;;;;;;173.13;89.50;;;-6.40;29.30;;;;;;5051449;28;20239;-70
2022/12/17 18:01:15;;;;;;;178.65;116.78;;;-6.40;29.80;;;;;;5051097;28;20202;-70
2022/12/17 18:03:41;;;;;;;180.68;110.18;;;-6.40;29.30;;;;;;5051359;28;20198;-70
2022/12/17 18:06:08;;;;;;;201.73;134.23;;;-6.50;29.10;;;;;;5051319;28;20174;-70
2022/12/17 18:08:35;;;;;;;177.80;89.53;;;-6.50;29.70;;;;;;5051465;28;20833;-71
2022/12/17 18:11:02;;;;;;;172.75;117.30;;;-6.50;29.90;;;;;;5051636;28;20273;-70
2022/12/17 18:16:12;;;;;;;159.75;93.43;;;-6.50;30.00;;;;;;5054635;28;20188;-70
2022/12/17 18:18:39;;;;;;;197.90;99.60;;;-6.40;30.40;;;;;;5055661;28;20190;-70
2022/12/17 18:21:13;;;;;;;192.63;106.13;;;-6.30;29.90;;;;;;5054885;28;20289;-72
2022/12/17 18:23:39;;;;;;;177.20;98.97;;;-6.20;29.70;;;;;;5055773;28;20194;-70
2022/12/17 18:26:10;;;;;;;170.50;96.40;;;-6.30;29.10;;;;;;5038660;28;20398;-73
2022/12/17 18:28:38;;;;;;;176.90;96.30;;;-6.10;28.90;;;;;;5036092;28;20178;-72
2022/12/17 18:31:09;;;;;;;169.95;88.32;;;-6.10;28.50;;;;;;5050241;28;20592;-72
2022/12/17 18:33:37;;;;;;;182.88;95.60;;;-6.10;28.30;;;;;;5054913;28;20214;-73
2022/12/17 18:36:24;;;;;;;188.43;111.47;;;-6.10;27.70;;;;;;5054290;28;20179;-72
2022/12/17 18:38:57;;;;;;;163.55;89.05;;;-6.10;27.50;;;;;;5053274;28;20175;-72
2022/12/17 18:44:08;;;;;;;165.43;88.10;;;-6.10;27.20;;;;;;5051046;28;20221;-73
2022/12/17 18:46:34;;;;;;;177.85;106.47;;;-6.10;27.40;;;;;;5043164;28;20179;-72
2022/12/17 18:49:03;;;;;;;178.50;100.20;;;-6.10;27.90;;;;;;5050495;28;20182;-73
2022/12/17 18:51:29;;;;;;;191.48;115.20;;;-6.10;27.50;;;;;;5056166;28;20932;-71
2022/12/17 18:53:57;;;;;;;179.93;94.17;;;-6.20;27.50;;;;;;5058335;28;20185;-72
2022/12/17 18:56:22;;;;;;;165.27;87.55;;;-6.20;27.80;;;;;;5059232;28;20413;-73
2022/12/17 18:58:48;;;;;;;190.20;97.20;;;-6.20;28.60;;;;;;5059333;28;20540;-73
2022/12/17 19:01:23;;;;;;;172.57;87.83;;;-6.20;28.70;;;;;;5053044;28;20186;-72
2022/12/17 19:03:49;;;;;;;185.98;90.30;;;-6.20;29.70;;;;;;5058251;28;20252;-73
2022/12/17 19:06:14;;;;;;;181.13;117.47;;;-6.30;29.10;;;;;;5059399;28;20186;-73
2022/12/17 19:08:40;;;;;;;171.23;103.47;;;-6.20;29.20;;;;;;5058067;28;20448;-73
2022/12/17 19:11:07;;;;;;;177.43;87.87;;;-6.20;29.20;;;;;;5055822;28;20453;-72
2022/12/17 19:13:33;;;;;;;162.32;89.13;;;-6.20;29.20;;;;;;5055561;28;20216;-72
2022/12/17 19:16:18;;;;;;;188.75;135.88;;;-6.10;29.30;;;;;;5059706;28;20174;-72
2022/12/17 19:18:44;;;;;;;205.45;116.75;;;-6.10;29.30;;;;;;5053639;28;20241;-73
2022/12/17 19:21:15;;;;;;;170.02;116.25;;;-6.20;29.20;;;;;;5053689;28;20205;-73
2022/12/17 19:23:41;;;;;;;176.25;86.22;;;-6.10;29.30;;;;;;5054948;28;20236;-71
2022/12/17 19:26:13;;;;;;;165.97;86.97;;;-6.00;29.20;;;;;;5054774;28;20644;-69
2022/12/17 19:28:40;;;;;;;150.95;96.50;;;-6.10;28.50;;;;;;5055093;28;20508;-70
2022/12/17 19:31:06;;;;;;;158.02;91.07;;;-6.10;27.40;;;;;;5054271;28;20251;-70
2022/12/17 19:33:31;;;;;;;167.68;85.20;;;-6.20;27.70;;;;;;5054769;28;20206;-70
2022/12/17 19:36:05;;;;;;;152.60;75.10;;;-6.30;27.60;;;;;;5054498;28;20231;-70
2022/12/17 19:38:31;;;;;;;167.70;79.55;;;-6.40;27.50;;;;;;5034085;28;20198;-69
2022/12/17 19:41:03;;;;;;;155.00;84.10;;;-6.50;27.70;;;;;;5035080;28;20712;-72
2022/12/17 19:43:28;;;;;;;179.07;113.25;;;-6.60;27.30;;;;;;5035022;28;20199;-70
2022/12/17 19:46:07;;;;;;;341.80;308.37;;;-6.60;27.40;;;;;;5035513;28;20671;-70
2022/12/17 19:48:34;;;;;;;217.68;174.57;;;-6.90;28.90;;;;;;5038684;28;20226;-70
2022/12/17 19:51:01;;;;;;;238.90;210.20;;;-6.90;28.70;;;;;;5055020;28;20672;-70
2022/12/17 19:53:28;;;;;;;155.93;81.90;;;-6.90;29.70;;;;;;5055585;28;20665;-70
2022/12/17 19:55:55;;;;;;;196.43;142.48;;;-6.80;31.20;;;;;;5055552;28;20677;-70
2022/12/17 19:58:23;;;;;;;204.43;170.60;;;-6.70;29.60;;;;;;5054701;28;20482;-71
2022/12/17 20:00:49;;;;;;;235.77;204.40;;;-6.90;28.70;;;;;;5054077;28;20201;-70
2022/12/17 20:03:15;;;;;;;274.88;247.43;;;-7.00;28.80;;;;;;5054939;28;20204;-69
2022/12/17 20:05:45;;;;;;;153.00;90.43;;;-7.10;28.60;;;;;;5054214;28;20182;-68
2022/12/17 20:08:11;;;;;;;150.65;102.15;;;-7.20;27.50;;;;;;5055459;28;20192;-70
2022/12/17 20:10:37;;;;;;;183.27;144.40;;;-7.20;26.30;;;;;;5054995;28;20173;-70
2022/12/17 20:13:03;;;;;;;173.00;98.72;;;-7.40;25.60;;;;;;5054858;28;20575;-71
2022/12/17 20:15:29;;;;;;;218.93;196.07;;;-7.60;25.80;;;;;;5054415;28;20193;-70
2022/12/17 20:17:55;;;;;;;134.07;67.17;;;-7.70;25.50;;;;;;5055123;28;20525;-70
2022/12/17 20:20:20;;;;;;;176.90;113.50;;;-7.70;26.50;;;;;;5055104;28;20425;-70
2022/12/17 20:22:46;;;;;;;156.67;108.13;;;-7.80;26.00;;;;;;5044157;28;20749;-70
2022/12/17 20:25:11;;;;;;;147.87;83.83;;;-7.90;27.30;;;;;;5046722;28;20270;-70
2022/12/17 20:27:38;;;;;;;176.13;96.97;;;-7.90;27.30;;;;;;5049265;28;20670;-70
2022/12/17 20:30:04;;;;;;;169.95;106.65;;;-7.90;27.00;;;;;;5063138;28;20711;-70
2022/12/17 20:32:30;;;;;;;149.27;71.25;;;-8.00;27.20;;;;;;5046286;28;20307;-69
2022/12/17 20:34:55;;;;;;;154.83;75.43;;;-8.00;27.10;;;;;;5053796;28;20219;-71
2022/12/17 20:37:21;;;;;;;157.47;78.93;;;-8.10;27.40;;;;;;5038525;28;20178;-71
2022/12/17 20:39:46;;;;;;;144.27;70.07;;;-8.10;26.90;;;;;;5054003;28;20329;-72
2022/12/17 20:42:12;;;;;;;168.20;114.60;;;-8.10;27.20;;;;;;5055776;28;20430;-72
2022/12/17 20:44:38;;;;;;;150.53;84.33;;;-8.10;26.60;;;;;;5055676;28;20225;-72
2022/12/17 20:47:03;;;;;;;169.85;98.53;;;-8.10;27.30;;;;;;5036583;28;20179;-72
2022/12/17 20:49:30;;;;;;;164.50;129.73;;;-8.20;27.20;;;;;;5055725;28;20580;-73
2022/12/17 20:51:55;;;;;;;177.05;114.32;;;-8.40;27.80;;;;;;5055265;28;20553;-71
2022/12/17 20:54:21;;;;;;;204.63;183.77;;;-8.40;27.80;;;;;;5054161;28;20171;-71
2022/12/17 20:56:47;;;;;;;271.70;247.60;;;-8.30;27.80;;;;;;5054489;28;20183;-72
2022/12/17 20:59:15;;;;;;;158.37;114.80;;;-8.40;27.80;;;;;;5055125;28;20237;-71
2022/12/17 21:01:40;;;;;;;175.57;151.25;;;-8.40;28.40;;;;;;5054779;28;20469;-73
2022/12/17 21:04:06;;;;;;;230.57;206.90;;;-8.50;27.70;;;;;;5053525;28;20240;-72
2022/12/17 21:06:58;;;;;;;292.93;265.70;;;-8.60;27.10;;;;;;5055361;28;20484;-72
2022/12/17 21:09:24;;;;;;;160.25;126.63;;;-8.70;26.70;;;;;;5038230;28;20285;-72
2022/12/17 21:11:49;;;;;;;197.60;179.07;;;-8.80;26.80;;;;;;5034596;28;20214;-71
2022/12/17 21:14:16;;;;;;;170.07;146.47;;;-8.90;26.30;;;;;;5033020;28;20749;-70
2022/12/17 21:16:43;;;;;;;159.85;126.55;;;-8.90;26.40;;;;;;5033134;28;20209;-70
2022/12/17 21:19:12;;;;;;;155.95;120.25;;;-8.90;26.40;;;;;;5048920;28;20178;-69
2022/12/17 21:21:38;;;;;;;201.52;182.77;;;-9.00;25.60;;;;;;5054003;28;20201;-71
2022/12/17 21:24:05;;;;;;;236.23;215.63;;;-9.10;25.60;;;;;;5054055;28;20198;-71
2022/12/17 21:26:33;;;;;;;246.68;225.38;;;-9.20;25.20;;;;;;5054286;28;20189;-70
2022/12/17 21:29:01;;;;;;;223.57;202.20;;;-9.20;25.50;;;;;;5053277;28;20614;-69
2022/12/17 21:31:28;;;;;;;266.00;240.73;;;-9.30;25.30;;;;;;5054221;28;20532;-71
2022/12/17 21:33:56;;;;;;;151.15;96.55;;;-9.40;25.70;;;;;;5054552;28;20649;-71
2022/12/17 21:36:22;;;;;;;193.02;172.32;;;-9.50;26.50;;;;;;5054608;28;20188;-71
2022/12/17 21:38:49;;;;;;;211.10;189.95;;;-9.60;26.70;;;;;;5054680;28;20772;-70
2022/12/17 21:41:23;;;;;;;216.35;196.18;;;-9.60;27.00;;;;;;5053987;28;20183;-70
2022/12/17 21:43:54;;;;;;;243.40;221.43;;;-9.60;27.50;;;;;;5054218;28;20256;-69
2022/12/17 21:46:20;;;;;;;181.95;162.68;;;-9.50;28.20;;;;;;5054243;28;20170;-69
2022/12/17 21:48:46;;;;;;;186.83;166.80;;;-9.50;28.50;;;;;;5053975;28;20667;-69
2022/12/17 21:51:12;;;;;;;240.80;219.20;;;-9.50;28.30;;;;;;5053226;28;20181;-68
2022/12/17 21:53:41;;;;;;;299.85;275.83;;;-9.50;28.10;;;;;;5051378;28;20994;-69
2022/12/17 21:56:12;;;;;;;177.27;158.25;;;-9.60;28.00;;;;;;5051836;28;20250;-70
2022/12/17 21:58:38;;;;;;;216.30;196.15;;;-9.60;27.90;;;;;;5051695;28;20240;-69
2022/12/17 22:01:17;;;;;;;217.68;196.45;;;-9.60;28.30;;;;;;5051699;28;20244;-68
2022/12/17 22:03:43;;;;;;;201.82;178.63;;;-9.70;27.90;;;;;;5050048;28;20213;-69
2022/12/17 22:06:14;;;;;;;223.13;201.73;;;-9.70;27.60;;;;;;5051582;28;20263;-69
2022/12/17 22:08:41;;;;;;;158.10;130.85;;;-9.80;27.70;;;;;;5051464;28;20179;-70
2022/12/17 22:11:15;;;;;;;294.48;272.75;;;-9.80;28.10;;;;;;5051367;28;20173;-71
2022/12/17 22:16:27;;;;;;;246.77;226.00;;;-9.80;28.50;;;;;;5051759;28;20190;-71
2022/12/17 22:18:52;;;;;;;200.70;181.27;;;-9.80;28.10;;;;;;5051448;28;20604;-71
2022/12/17 22:21:19;;;;;;;199.00;179.47;;;-9.90;28.10;;;;;;5051839;28;20265;-70
2022/12/17 22:23:47;;;;;;;171.77;136.73;;;-9.80;28.50;;;;;;5055088;28;20198;-71
2022/12/17 22:26:14;;;;;;;224.88;204.32;;;-9.80;28.70;;;;;;5055339;28;20218;-70
2022/12/17 22:28:42;;;;;;;232.60;211.52;;;-9.90;28.20;;;;;;5055232;28;20201;-70
2022/12/17 22:33:54;;;;;;;175.32;156.95;;;-9.90;28.50;;;;;;5055202;28;20569;-72
2022/12/17 22:36:20;;;;;;;182.67;164.00;;;-9.80;28.70;;;;;;5053837;28;20276;-72
2022/12/17 22:38:46;;;;;;;207.57;185.97;;;-9.80;28.40;;;;;;5055285;28;20179;-72
2022/12/17 22:43:28;;;;;;;269.17;246.83;;;-9.80;27.70;;;;;;5054680;28;20175;-71
2022/12/17 22:44:01;;;;;;;289.85;265.60;;;-9.90;27.40;;;;;;5054712;28;20687;-71
2022/12/17 22:46:30;;;;;;;313.05;286.00;;;-10.10;27.30;;;;;;5054879;28;20182;-71
2022/12/17 22:48:56;;;;;;;245.93;223.98;;;-10.10;27.30;;;;;;5054898;28;20207;-71
2022/12/17 22:51:24;;;;;;;161.13;138.32;;;-10.10;27.20;;;;;;5054597;28;20248;-73
2022/12/17 22:53:50;;;;;;;157.27;121.15;;;-10.20;27.60;;;;;;5054426;28;20179;-71
2022/12/17 22:56:17;;;;;;;162.23;145.50;;;-10.30;27.10;;;;;;5053469;28;20817;-70
2022/12/17 22:58:42;;;;;;;151.95;131.70;;;-10.30;27.00;;;;;;5054749;28;20613;-72
2022/12/17 23:01:08;;;;;;;157.53;137.70;;;-10.30;27.50;;;;;;5053283;28;20202;-71
2022/12/17 23:03:33;;;;;;;200.77;182.57;;;-10.30;27.30;;;;;;5054281;28;20214;-71
2022/12/17 23:06:19;;;;;;;134.20;115.93;;;-10.30;27.30;;;;;;5054481;28;20163;-71
2022/12/17 23:08:45;;;;;;;174.57;157.48;;;-10.20;27.20;;;;;;5054493;28;20172;-72
2022/12/17 23:11:20;;;;;;;192.27;172.93;;;-10.30;26.80;;;;;;5039140;28;20187;-72
2022/12/17 23:13:45;;;;;;;173.63;155.13;;;-10.40;26.90;;;;;;5054481;28;20221;-71
2022/12/17 23:16:12;;;;;;;153.33;108.53;;;-10.40;26.50;;;;;;5060419;28;20214;-71
2022/12/17 23:18:39;;;;;;;138.40;109.82;;;-10.40;25.70;;;;;;5034504;28;20183;-73
2022/12/17 23:21:10;;;;;;;186.77;163.98;;;-10.40;26.50;;;;;;5034380;28;20514;-71
2022/12/17 23:23:36;;;;;;;304.13;280.30;;;-10.50;25.10;;;;;;5034002;28;20796;-72
2022/12/17 23:26:14;;;;;;;158.35;141.55;;;-10.50;24.80;;;;;;5034196;28;20310;-72
2022/12/17 23:28:40;;;;;;;162.25;145.85;;;-10.60;25.10;;;;;;5034110;28;20183;-72
2022/12/17 23:31:10;;;;;;;151.30;117.68;;;-10.60;25.20;;;;;;5034075;28;20529;-72
2022/12/17 23:33:37;;;;;;;181.52;163.30;;;-10.60;24.80;;;;;;5071066;22;20237;-71
2022/12/17 23:36:14;;;;;;;208.95;190.32;;;-10.70;24.80;;;;;;5089538;28;20635;-71
2022/12/17 23:38:40;;;;;;;183.38;163.70;;;-10.70;24.20;;;;;;5089510;28;20186;-70
2022/12/17 23:41:17;;;;;;;225.90;207.07;;;-10.70;24.00;;;;;;5074074;28;20170;-73
2022/12/17 23:43:44;;;;;;;225.20;206.82;;;-10.70;24.20;;;;;;5080412;28;20830;-71
2022/12/17 23:46:10;;;;;;;223.38;203.82;;;-10.80;23.70;;;;;;5052537;28;20184;-70
2022/12/17 23:48:38;;;;;;;223.35;204.00;;;-10.80;23.40;;;;;;5053797;28;20185;-70
2022/12/17 23:51:05;;;;;;;263.15;243.77;;;-10.80;23.50;;;;;;5053628;28;20214;-70
2022/12/17 23:53:31;;;;;;;188.23;171.10;;;-10.80;23.10;;;;;;5053347;28;20573;-70
2022/12/17 23:56:08;;;;;;;228.23;208.38;;;-10.80;23.30;;;;;;5052313;28;20525;-70
2022/12/17 23:58:35;;;;;;;219.88;200.85;;;-10.90;23.00;;;;;;5052427;28;20189;-71
